Serenade Of The Seas — C6FV8 — position and weather

sailwx.info

Track history (hours):
 
Tides and Currents Weather Stations Pressure Air Temp Water Temp Dewpoint Dewpoint Depression Visibility Wind Speed Wind Dir Waves Ship Positions

Serenade Of The Seas

Operator: Royal Caribbean Cruises Ltd

Last reported at 2016-Jul-26 08:28 UTC. Time now 2016-Jul-26 12:04 UTC.
Position N 60°09' E 024°55'.

Length 294 m; draft 8.5 m.

Type: Ship. MMSI: 311492000.

Date/timePositionNaut miles runAvg speedWind from/ knotsBaromVisibWave heightAir tempDewpointWater temp
2016-Jul-26 08:28N 60°09' E 024°55'0 0.0
2016-Jul-26 07:31N 60°09' E 024°55'19 8.6
2016-Jul-26 05:22N 59°50' E 024°54'1416.7
2016-Jul-26 04:34N 59°44' E 024°30'1817.6
2016-Jul-26 03:33N 59°39' E 023°57'1717.5
2016-Jul-26 02:33N 59°33' E 023°24'1817.5
2016-Jul-26 01:33N 59°28' E 022°51'1717.5
2016-Jul-26 00:34N 59°22' E 022°19'3517.5
2016-Jul-25 22:33N 59°24' E 021°10'2517.1
2016-Jul-25 21:04N 59°27' E 020°21'816.6
2016-Jul-25 20:33N 59°30' E 020°05'1716.8
2016-Jul-25 19:32N 59°44' E 019°45'1514.4
2016-Jul-25 18:31N 59°45' E 019°16'39 9.6
2016-Jul-25 14:28N 59°21' E 018°15'4 4.1
2016-Jul-25 13:32N 59°21' E 018°08'0 0.0
2016-Jul-25 12:34N 59°21' E 018°08'0 0.0
2016-Jul-25 11:32N 59°21' E 018°08'0 0.0
2016-Jul-25 10:26N 59°21' E 018°08'0 0.0
2016-Jul-25 09:32N 59°21' E 018°08'0 0.0
2016-Jul-25 08:20N 59°21' E 018°08'0 0.0
2016-Jul-25 07:32N 59°21' E 018°08'0 0.0
2016-Jul-25 06:32N 59°21' E 018°08'0 0.0
2016-Jul-25 05:27N 59°21' E 018°08'0 0.0
2016-Jul-25 04:33N 59°21' E 018°08'0 0.0
2016-Jul-25 03:33N 59°21' E 018°08'0 0.0
2016-Jul-25 02:21N 59°21' E 018°08'0 0.0
2016-Jul-25 01:33N 59°21' E 018°08'0 0.0
2016-Jul-25 00:33N 59°21' E 018°08'0 0.0
2016-Jul-24 23:33N 59°21' E 018°08'0 0.0
2016-Jul-24 22:33N 59°21' E 018°08'0 0.0
2016-Jul-24 21:33N 59°21' E 018°08'0 0.0
2016-Jul-24 20:33N 59°21' E 018°08'0 0.0
2016-Jul-24 19:33N 59°21' E 018°08'10 0.6
2016-Jul-24 03:26N 59°23' E 018°27'  
2016-Jul-21 17:33N 59°35' E 023°05'1818.1
2016-Jul-21 16:32N 59°33' E 023°41'2318.1
2016-Jul-21 15:16N 59°30' E 024°26'913.4
2016-Jul-21 14:34N 59°31' E 024°44'5 4.4
2016-Jul-21 13:31N 59°27' E 024°46'0 0.0
2016-Jul-21 12:31N 59°27' E 024°46'0 0.0
2016-Jul-21 11:31N 59°27' E 024°46'0 0.0
2016-Jul-21 10:31N 59°27' E 024°46'0 0.0
2016-Jul-21 09:31N 59°27' E 024°46'0 0.0
2016-Jul-21 08:28N 59°27' E 024°46'0 0.0
2016-Jul-21 07:31N 59°27' E 024°46'0 0.0
2016-Jul-21 06:28N 59°27' E 024°46'0 0.0
2016-Jul-21 05:31N 59°27' E 024°46'0 0.0
2016-Jul-21 04:32N 59°27' E 024°46'1111.4
2016-Jul-21 03:33N 59°38' E 024°40'1413.8
2016-Jul-21 02:33N 59°49' E 024°55'4314.3
2016-Jul-20 23:33N 59°59' E 026°18'1817.9
2016-Jul-20 22:33N 60°00' E 026°54'1817.7
2016-Jul-20 21:33N 60°07' E 027°27'1717.0
2016-Jul-20 20:33N 60°10' E 028°00'1818.0
2016-Jul-20 19:33N 60°03' E 028°33'1818.3
2016-Jul-20 18:33N 60°03' E 029°10'1813.6
2016-Jul-20 17:13N 59°59' E 029°46'811.6
2016-Jul-20 16:33N 59°55' E 029°59'6 6.0
2016-Jul-20 15:33N 59°57' E 030°11'0 0.0
2016-Jul-20 14:33N 59°57' E 030°11'0 0.0
2016-Jul-20 13:30N 59°57' E 030°11'0 0.0
2016-Jul-20 12:33N 59°57' E 030°11'0 0.0
2016-Jul-20 11:33N 59°57' E 030°11'0 0.0
2016-Jul-20 10:33N 59°57' E 030°11'0 0.0
2016-Jul-20 09:33N 59°57' E 030°11'0 0.0
2016-Jul-20 08:33N 59°57' E 030°11'0 0.0
2016-Jul-20 07:33N 59°57' E 030°11'0 0.0
2016-Jul-20 06:33N 59°57' E 030°11'0 0.0
2016-Jul-20 05:33N 59°57' E 030°11'0 0.0
2016-Jul-20 04:33N 59°57' E 030°11'0 0.0
2016-Jul-20 03:30N 59°57' E 030°11'0 0.0
2016-Jul-20 02:33N 59°57' E 030°11'0 0.0
2016-Jul-20 01:33N 59°57' E 030°11'0 0.0
2016-Jul-20 00:30N 59°57' E 030°11'0 0.0
2016-Jul-19 23:33N 59°57' E 030°11'0 0.0
2016-Jul-19 22:33N 59°57' E 030°11'0 0.0
2016-Jul-19 21:33N 59°57' E 030°11'0 0.0
2016-Jul-19 20:33N 59°57' E 030°11'0 0.0
2016-Jul-19 19:33N 59°57' E 030°11'0 0.0
2016-Jul-19 18:33N 59°57' E 030°11'0 0.0
2016-Jul-19 17:33N 59°57' E 030°11'0 0.0
2016-Jul-19 16:33N 59°57' E 030°11'0 0.0
2016-Jul-19 15:33N 59°57' E 030°11'0 0.0
2016-Jul-19 14:30N 59°57' E 030°11'0 0.0
2016-Jul-19 13:30N 59°57' E 030°11'0 0.0
2016-Jul-19 12:30N 59°57' E 030°11'0 0.0
2016-Jul-19 11:33N 59°57' E 030°11'0 0.0
2016-Jul-19 10:33N 59°57' E 030°11'0 0.0
2016-Jul-19 09:33N 59°57' E 030°11'0 0.0
2016-Jul-19 08:33N 59°57' E 030°11'0 0.0
2016-Jul-19 07:33N 59°57' E 030°11'0 0.0
2016-Jul-19 04:30N 59°57' E 030°11'1 1.3
2016-Jul-19 03:33N 59°57' E 030°09'1010.0
2016-Jul-19 02:33N 59°58' E 029°49'1110.8
2016-Jul-19 01:33N 60°01' E 029°29'1313.2
2016-Jul-19 00:34N 60°02' E 029°02'1514.8
2016-Jul-18 23:33N 60°02' E 028°33'1514.6
2016-Jul-18 22:34N 60°08' E 028°06'1413.8
2016-Jul-18 21:33N 60°08' E 027°38'1514.7
2016-Jul-18 20:33N 60°00' E 027°13'1413.9
2016-Jul-18 19:34N 59°59' E 026°45'1514.5
2016-Jul-18 18:33N 59°57' E 026°17'1514.6
2016-Jul-18 17:33N 59°53' E 025°49'1414.2
2016-Jul-18 16:33N 59°54' E 025°20'1414.1
2016-Jul-18 15:33N 60°01' E 024°56'16 1.6
2016-Jul-18 05:32N 59°46' E 024°45'1717.1
2016-Jul-18 04:32N 59°41' E 024°12'1717.2
2016-Jul-18 03:34N 59°36' E 023°41'1717.3
2016-Jul-18 02:33N 59°30' E 023°09'1818.0
2016-Jul-18 01:33N 59°25' E 022°35'1817.9
2016-Jul-18 00:33N 59°23' E 022°00'2018.3
2016-Jul-17 23:29N 59°24' E 021°22'2418.2
2016-Jul-17 22:10N 59°27' E 020°35'7110.6
2016-Jul-17 15:27N 59°21' E 018°15'4 4.3
2016-Jul-17 14:32N 59°21' E 018°08'0 0.0
2016-Jul-17 13:32N 59°21' E 018°08'0 0.0
2016-Jul-17 12:32N 59°21' E 018°08'0 0.0
2016-Jul-17 11:32N 59°21' E 018°08'0 0.0
2016-Jul-17 10:32N 59°21' E 018°08'0 0.0
2016-Jul-17 09:32N 59°21' E 018°08'0 0.0
2016-Jul-17 08:32N 59°21' E 018°08'0 0.0
2016-Jul-17 07:29N 59°21' E 018°08'0 0.0
2016-Jul-17 06:32N 59°21' E 018°08'1 0.5
2016-Jul-17 04:32N 59°20' E 018°10'  
Track history (hours):
 
Tides and Currents Weather Stations Pressure Air Temp Water Temp Dewpoint Dewpoint Depression Visibility Wind Speed Wind Dir Waves Ship Positions

Serenade Of The Seas

Operator: Royal Caribbean Cruises Ltd

Last reported at 2016-Jul-26 08:28 UTC. Time now 2016-Jul-26 12:04 UTC.
Position N 60°09' E 024°55'.

Length 294 m; draft 8.5 m.

Type: Ship. MMSI: 311492000.

Date/timePositionNaut miles runAvg speedWind from/ knotsBaromVisibWave heightAir tempDewpointWater temp
2016-Jul-26 08:28N 60°09' E 024°55'0 0.0
2016-Jul-26 07:31N 60°09' E 024°55'19 8.6
2016-Jul-26 05:22N 59°50' E 024°54'1416.7
2016-Jul-26 04:34N 59°44' E 024°30'1817.6
2016-Jul-26 03:33N 59°39' E 023°57'1717.5
2016-Jul-26 02:33N 59°33' E 023°24'1817.5
2016-Jul-26 01:33N 59°28' E 022°51'1717.5
2016-Jul-26 00:34N 59°22' E 022°19'3517.5
2016-Jul-25 22:33N 59°24' E 021°10'2517.1
2016-Jul-25 21:04N 59°27' E 020°21'816.6
2016-Jul-25 20:33N 59°30' E 020°05'1716.8
2016-Jul-25 19:32N 59°44' E 019°45'1514.4
2016-Jul-25 18:31N 59°45' E 019°16'39 9.6
2016-Jul-25 14:28N 59°21' E 018°15'4 4.1
2016-Jul-25 13:32N 59°21' E 018°08'0 0.0
2016-Jul-25 12:34N 59°21' E 018°08'0 0.0
2016-Jul-25 11:32N 59°21' E 018°08'0 0.0
2016-Jul-25 10:26N 59°21' E 018°08'0 0.0
2016-Jul-25 09:32N 59°21' E 018°08'0 0.0
2016-Jul-25 08:20N 59°21' E 018°08'0 0.0
2016-Jul-25 07:32N 59°21' E 018°08'0 0.0
2016-Jul-25 06:32N 59°21' E 018°08'0 0.0
2016-Jul-25 05:27N 59°21' E 018°08'0 0.0
2016-Jul-25 04:33N 59°21' E 018°08'0 0.0
2016-Jul-25 03:33N 59°21' E 018°08'0 0.0
2016-Jul-25 02:21N 59°21' E 018°08'0 0.0
2016-Jul-25 01:33N 59°21' E 018°08'0 0.0
2016-Jul-25 00:33N 59°21' E 018°08'0 0.0
2016-Jul-24 23:33N 59°21' E 018°08'0 0.0
2016-Jul-24 22:33N 59°21' E 018°08'0 0.0
2016-Jul-24 21:33N 59°21' E 018°08'0 0.0
2016-Jul-24 20:33N 59°21' E 018°08'0 0.0
2016-Jul-24 19:33N 59°21' E 018°08'10 0.6
2016-Jul-24 03:26N 59°23' E 018°27'  
2016-Jul-21 17:33N 59°35' E 023°05'1818.1
2016-Jul-21 16:32N 59°33' E 023°41'2318.1
2016-Jul-21 15:16N 59°30' E 024°26'913.4
2016-Jul-21 14:34N 59°31' E 024°44'5 4.4
2016-Jul-21 13:31N 59°27' E 024°46'0 0.0
2016-Jul-21 12:31N 59°27' E 024°46'0 0.0
2016-Jul-21 11:31N 59°27' E 024°46'0 0.0
2016-Jul-21 10:31N 59°27' E 024°46'0 0.0
2016-Jul-21 09:31N 59°27' E 024°46'0 0.0
2016-Jul-21 08:28N 59°27' E 024°46'0 0.0
2016-Jul-21 07:31N 59°27' E 024°46'0 0.0
2016-Jul-21 06:28N 59°27' E 024°46'0 0.0
2016-Jul-21 05:31N 59°27' E 024°46'0 0.0
2016-Jul-21 04:32N 59°27' E 024°46'1111.4
2016-Jul-21 03:33N 59°38' E 024°40'1413.8
2016-Jul-21 02:33N 59°49' E 024°55'4314.3
2016-Jul-20 23:33N 59°59' E 026°18'1817.9
2016-Jul-20 22:33N 60°00' E 026°54'1817.7
2016-Jul-20 21:33N 60°07' E 027°27'1717.0
2016-Jul-20 20:33N 60°10' E 028°00'1818.0
2016-Jul-20 19:33N 60°03' E 028°33'1818.3
2016-Jul-20 18:33N 60°03' E 029°10'1813.6
2016-Jul-20 17:13N 59°59' E 029°46'811.6
2016-Jul-20 16:33N 59°55' E 029°59'6 6.0
2016-Jul-20 15:33N 59°57' E 030°11'0 0.0
2016-Jul-20 14:33N 59°57' E 030°11'0 0.0
2016-Jul-20 13:30N 59°57' E 030°11'0 0.0
2016-Jul-20 12:33N 59°57' E 030°11'0 0.0
2016-Jul-20 11:33N 59°57' E 030°11'0 0.0
2016-Jul-20 10:33N 59°57' E 030°11'0 0.0
2016-Jul-20 09:33N 59°57' E 030°11'0 0.0
2016-Jul-20 08:33N 59°57' E 030°11'0 0.0
2016-Jul-20 07:33N 59°57' E 030°11'0 0.0
2016-Jul-20 06:33N 59°57' E 030°11'0 0.0
2016-Jul-20 05:33N 59°57' E 030°11'0 0.0
2016-Jul-20 04:33N 59°57' E 030°11'0 0.0
2016-Jul-20 03:30N 59°57' E 030°11'0 0.0
2016-Jul-20 02:33N 59°57' E 030°11'0 0.0
2016-Jul-20 01:33N 59°57' E 030°11'0 0.0
2016-Jul-20 00:30N 59°57' E 030°11'0 0.0
2016-Jul-19 23:33N 59°57' E 030°11'0 0.0
2016-Jul-19 22:33N 59°57' E 030°11'0 0.0
2016-Jul-19 21:33N 59°57' E 030°11'0 0.0
2016-Jul-19 20:33N 59°57' E 030°11'0 0.0
2016-Jul-19 19:33N 59°57' E 030°11'0 0.0
2016-Jul-19 18:33N 59°57' E 030°11'0 0.0
2016-Jul-19 17:33N 59°57' E 030°11'0 0.0
2016-Jul-19 16:33N 59°57' E 030°11'0 0.0
2016-Jul-19 15:33N 59°57' E 030°11'0 0.0
2016-Jul-19 14:30N 59°57' E 030°11'0 0.0
2016-Jul-19 13:30N 59°57' E 030°11'0 0.0
2016-Jul-19 12:30N 59°57' E 030°11'0 0.0
2016-Jul-19 11:33N 59°57' E 030°11'0 0.0
2016-Jul-19 10:33N 59°57' E 030°11'0 0.0
2016-Jul-19 09:33N 59°57' E 030°11'0 0.0
2016-Jul-19 08:33N 59°57' E 030°11'0 0.0
2016-Jul-19 07:33N 59°57' E 030°11'0 0.0
2016-Jul-19 04:30N 59°57' E 030°11'1 1.3
2016-Jul-19 03:33N 59°57' E 030°09'1010.0
2016-Jul-19 02:33N 59°58' E 029°49'1110.8
2016-Jul-19 01:33N 60°01' E 029°29'1313.2
2016-Jul-19 00:34N 60°02' E 029°02'1514.8
2016-Jul-18 23:33N 60°02' E 028°33'1514.6
2016-Jul-18 22:34N 60°08' E 028°06'1413.8
2016-Jul-18 21:33N 60°08' E 027°38'1514.7
2016-Jul-18 20:33N 60°00' E 027°13'1413.9
2016-Jul-18 19:34N 59°59' E 026°45'1514.5
2016-Jul-18 18:33N 59°57' E 026°17'1514.6
2016-Jul-18 17:33N 59°53' E 025°49'1414.2
2016-Jul-18 16:33N 59°54' E 025°20'1414.1
2016-Jul-18 15:33N 60°01' E 024°56'16 1.6
2016-Jul-18 05:32N 59°46' E 024°45'1717.1
2016-Jul-18 04:32N 59°41' E 024°12'1717.2
2016-Jul-18 03:34N 59°36' E 023°41'1717.3
2016-Jul-18 02:33N 59°30' E 023°09'1818.0
2016-Jul-18 01:33N 59°25' E 022°35'1817.9
2016-Jul-18 00:33N 59°23' E 022°00'2018.3
2016-Jul-17 23:29N 59°24' E 021°22'2418.2
2016-Jul-17 22:10N 59°27' E 020°35'7110.6
2016-Jul-17 15:27N 59°21' E 018°15'4 4.3
2016-Jul-17 14:32N 59°21' E 018°08'0 0.0
2016-Jul-17 13:32N 59°21' E 018°08'0 0.0
2016-Jul-17 12:32N 59°21' E 018°08'0 0.0
2016-Jul-17 11:32N 59°21' E 018°08'0 0.0
2016-Jul-17 10:32N 59°21' E 018°08'0 0.0
2016-Jul-17 09:32N 59°21' E 018°08'0 0.0
2016-Jul-17 08:32N 59°21' E 018°08'0 0.0
2016-Jul-17 07:29N 59°21' E 018°08'0 0.0
2016-Jul-17 06:32N 59°21' E 018°08'1 0.5
2016-Jul-17 04:32N 59°20' E 018°10'  

Dump ship's entire track history